createdAt,value
2023-03-28T00:01:09.772Z,19.85
2023-03-28T00:03:40.074Z,19.97
2023-03-28T00:06:13.311Z,20.05
2023-03-28T00:08:42.210Z,20.31
2023-03-28T00:11:12.759Z,20.25
2023-03-28T00:13:41.593Z,20.25
2023-03-28T00:16:12.958Z,20.37
2023-03-28T00:18:42.835Z,20.52
2023-03-28T00:21:23.656Z,20.10
2023-03-28T00:23:53.616Z,20.57
2023-03-28T00:26:24.838Z,20.68
2023-03-28T00:28:53.815Z,20.75
2023-03-28T00:31:22.298Z,20.94
2023-03-28T00:33:50.921Z,20.83
2023-03-28T00:36:23.069Z,21.01
2023-03-28T00:38:52.469Z,21.18
2023-03-28T00:41:21.975Z,21.21
2023-03-28T00:43:53.268Z,21.26
2023-03-28T00:46:23.699Z,21.51
2023-03-28T00:48:54.248Z,21.39
2023-03-28T00:51:27.133Z,21.11
2023-03-28T00:53:58.195Z,21.48
2023-03-28T00:56:29.905Z,21.56
2023-03-28T00:58:59.139Z,21.66
2023-03-28T01:01:28.432Z,21.77
2023-03-28T01:04:03.137Z,21.76
2023-03-28T01:06:34.844Z,21.83
2023-03-28T01:09:06.878Z,21.90
2023-03-28T01:11:38.267Z,21.91
2023-03-28T01:14:07.951Z,22.05
2023-03-28T01:16:41.973Z,22.32
2023-03-28T01:19:15.237Z,22.13
2023-03-28T01:22:07.364Z,21.85
2023-03-28T01:25:14.703Z,21.68
2023-03-28T01:27:45.781Z,22.56
2023-03-28T01:30:32.150Z,22.28
2023-03-28T01:33:21.523Z,22.46
2023-03-28T01:36:33.997Z,22.21
2023-03-28T01:39:09.455Z,22.46
2023-03-28T01:41:43.305Z,22.74
2023-03-28T01:44:16.283Z,22.87
2023-03-28T01:46:47.296Z,23.39
2023-03-28T01:49:21.860Z,23.01
2023-03-28T01:51:58.657Z,22.84
2023-03-28T01:54:32.184Z,22.63
2023-03-28T01:57:06.003Z,22.75
2023-03-28T01:59:37.188Z,22.93
2023-03-28T02:02:09.423Z,22.83
2023-03-28T02:04:38.607Z,23.04
2023-03-28T02:07:09.062Z,23.37
2023-03-28T02:09:40.255Z,23.49
2023-03-28T02:12:13.478Z,23.50
2023-03-28T02:14:43.523Z,23.81
2023-03-28T02:17:16.829Z,23.79
2023-03-28T02:19:48.241Z,24.06
2023-03-28T02:22:21.243Z,24.13
2023-03-28T02:24:53.143Z,24.00
2023-03-28T02:27:22.819Z,24.31
2023-03-28T02:29:54.537Z,24.46
2023-03-28T02:32:23.934Z,24.41
2023-03-28T02:34:54.796Z,24.18
2023-03-28T02:37:32.720Z,23.74
2023-03-28T02:40:17.431Z,23.85
2023-03-28T02:43:12.601Z,23.77
2023-03-28T02:46:04.900Z,23.66
2023-03-28T02:48:41.963Z,23.83
2023-03-28T02:51:17.691Z,23.74
2023-03-28T02:53:53.837Z,23.84
2023-03-28T02:56:29.655Z,23.64
2023-03-28T02:58:59.911Z,24.35
2023-03-28T03:01:29.419Z,24.50
2023-03-28T03:03:58.588Z,24.24
2023-03-28T03:06:27.001Z,24.68
2023-03-28T03:08:55.515Z,24.83
2023-03-28T03:11:28.199Z,24.72
2023-03-28T03:13:57.492Z,24.68
2023-03-28T03:16:25.950Z,24.75
2023-03-28T03:18:54.432Z,24.82
2023-03-28T03:21:23.797Z,24.77
2023-03-28T03:23:52.395Z,24.43
2023-03-28T03:26:20.876Z,24.39
2023-03-28T03:28:50.721Z,24.44
2023-03-28T03:31:19.815Z,24.59
2023-03-28T03:33:48.684Z,24.70
2023-03-28T03:36:17.480Z,24.64
2023-03-28T03:38:45.977Z,24.78
2023-03-28T03:41:14.231Z,24.91
2023-03-28T03:43:43.540Z,24.98
2023-03-28T03:46:14.297Z,24.77
2023-03-28T03:48:49.499Z,24.91
2023-03-28T03:51:18.765Z,25.04
2023-03-28T03:53:50.661Z,24.97
2023-03-28T03:56:18.987Z,24.72
2023-03-28T03:58:47.536Z,24.96
2023-03-28T04:01:17.196Z,24.69
2023-03-28T04:03:48.224Z,24.91
2023-03-28T04:06:16.564Z,24.75
2023-03-28T04:08:45.040Z,24.89
2023-03-28T04:11:13.228Z,25.01
2023-03-28T04:13:41.774Z,24.84
2023-03-28T04:16:11.957Z,24.67
2023-03-28T04:18:42.125Z,24.51
2023-03-28T04:21:10.485Z,24.79
2023-03-28T04:23:43.700Z,24.80
2023-03-28T04:26:20.643Z,24.83
2023-03-28T04:28:49.168Z,24.84
2023-03-28T04:31:17.490Z,24.74
2023-03-28T04:33:47.554Z,24.68
2023-03-28T04:36:16.867Z,24.74
2023-03-28T04:38:46.778Z,24.80
2023-03-28T04:41:16.921Z,24.74
2023-03-28T04:43:45.708Z,24.80
2023-03-28T04:46:14.060Z,24.96
2023-03-28T04:48:42.613Z,25.40
2023-03-28T04:51:12.374Z,25.62
2023-03-28T04:53:40.992Z,25.82
2023-03-28T04:56:14.088Z,25.57
2023-03-28T04:58:42.808Z,25.41
2023-03-28T05:01:11.862Z,25.57
2023-03-28T05:03:40.493Z,25.37
2023-03-28T05:06:10.853Z,25.43
2023-03-28T05:08:43.875Z,25.31
2023-03-28T05:11:12.529Z,25.61
2023-03-28T05:13:41.112Z,26.17
2023-03-28T05:16:09.742Z,26.06
2023-03-28T05:18:38.252Z,26.27
2023-03-28T05:21:07.389Z,26.37
2023-03-28T05:23:36.092Z,26.82
2023-03-28T05:26:06.732Z,26.55
2023-03-28T05:28:35.961Z,26.94
2023-03-28T05:31:06.641Z,26.79
2023-03-28T05:33:35.848Z,26.60
2023-03-28T05:36:04.675Z,26.52
2023-03-28T05:38:33.877Z,26.79
2023-03-28T05:41:03.362Z,26.95
2023-03-28T05:43:33.261Z,26.93
2023-03-28T05:46:01.719Z,27.08
2023-03-28T05:48:31.897Z,27.24
2023-03-28T05:51:00.602Z,27.16
2023-03-28T05:53:29.315Z,27.09
2023-03-28T05:55:57.584Z,27.01
2023-03-28T05:58:26.084Z,26.95
2023-03-28T06:00:56.850Z,26.51
2023-03-28T06:03:25.980Z,27.16
2023-03-28T06:05:54.410Z,27.14
2023-03-28T06:08:22.952Z,27.12
2023-03-28T06:10:51.265Z,27.13
2023-03-28T06:13:19.753Z,27.45
2023-03-28T06:15:47.938Z,27.50
2023-03-28T06:18:17.920Z,27.02
2023-03-28T06:20:46.254Z,27.54
2023-03-28T06:23:14.793Z,27.74
2023-03-28T06:25:43.049Z,27.98
2023-03-28T06:28:11.690Z,28.13
2023-03-28T06:30:41.156Z,28.34
2023-03-28T06:33:09.867Z,28.46
2023-03-28T06:35:39.446Z,28.56
2023-03-28T06:38:08.069Z,28.42
2023-03-28T06:40:38.887Z,28.29
2023-03-28T06:43:07.398Z,28.02
2023-03-28T06:45:35.619Z,27.99
2023-03-28T06:48:04.304Z,27.89
2023-03-28T06:50:32.546Z,28.50
2023-03-28T06:53:02.685Z,29.00
2023-03-28T06:55:30.878Z,28.88
2023-03-28T06:57:59.475Z,27.66
2023-03-28T07:00:27.825Z,24.79
2023-03-28T07:02:56.618Z,21.83
2023-03-28T07:05:25.087Z,20.45
2023-03-28T07:07:53.628Z,20.00
2023-03-28T07:10:23.657Z,18.53
2023-03-28T07:12:52.218Z,18.01
2023-03-28T07:15:20.638Z,17.47
2023-03-28T07:17:49.096Z,17.81
2023-03-28T07:20:17.471Z,17.86
2023-03-28T07:22:46.134Z,18.25
2023-03-28T07:25:14.406Z,18.27
2023-03-28T07:27:44.362Z,19.26
2023-03-28T07:30:13.767Z,19.82
2023-03-28T07:32:54.325Z,20.20
2023-03-28T07:35:28.320Z,20.39
2023-03-28T07:37:57.655Z,19.97
2023-03-28T07:40:26.300Z,19.93
2023-03-28T07:42:56.263Z,20.14
2023-03-28T07:45:24.582Z,20.46
2023-03-28T07:47:53.253Z,20.29
2023-03-28T07:50:25.046Z,19.33
2023-03-28T07:52:57.681Z,19.57
2023-03-28T07:55:26.675Z,19.63
2023-03-28T07:57:56.637Z,19.16
2023-03-28T08:00:25.227Z,19.40
2023-03-28T08:02:53.851Z,19.60
2023-03-28T08:05:24.278Z,20.16
2023-03-28T08:07:53.969Z,20.56
2023-03-28T08:10:22.506Z,20.69
2023-03-28T08:12:51.165Z,20.81
2023-03-28T08:15:21.055Z,21.12
2023-03-28T08:17:49.830Z,21.37
2023-03-28T08:20:19.779Z,21.72
2023-03-28T08:22:48.582Z,22.50
2023-03-28T08:25:16.966Z,22.46
2023-03-28T08:27:45.612Z,22.18
2023-03-28T08:30:14.554Z,20.64
2023-03-28T08:32:46.271Z,16.54
2023-03-28T08:35:16.707Z,14.83
2023-03-28T08:37:48.038Z,14.65
2023-03-28T08:40:19.701Z,14.92
2023-03-28T08:43:01.670Z,15.61
2023-03-28T08:45:38.486Z,16.82
2023-03-28T08:48:18.983Z,17.18
2023-03-28T08:50:49.542Z,17.16
2023-03-28T08:53:26.630Z,16.87
2023-03-28T08:55:55.210Z,18.64
2023-03-28T08:58:25.181Z,20.21
2023-03-28T09:01:12.502Z,19.48
2023-03-28T09:03:47.811Z,18.23
2023-03-28T09:06:37.303Z,17.25
2023-03-28T09:09:38.565Z,15.60
2023-03-28T09:12:39.020Z,14.59
2023-03-28T09:15:35.605Z,14.20
2023-03-28T09:18:38.309Z,13.22
2023-03-28T09:21:15.217Z,10.70
2023-03-28T09:24:09.965Z,8.33
2023-03-28T09:26:48.855Z,8.20
2023-03-28T09:29:28.580Z,8.04
2023-03-28T09:32:17.663Z,7.62
2023-03-28T09:34:57.618Z,6.30
2023-03-28T09:37:49.274Z,4.94
2023-03-28T09:40:42.815Z,3.84
2023-03-28T09:43:17.123Z,4.99
2023-03-28T09:46:03.253Z,6.55
2023-03-28T09:48:49.109Z,8.92
2023-03-28T09:51:19.899Z,11.00
2023-03-28T09:53:59.535Z,12.25
2023-03-28T09:56:38.566Z,13.90
2023-03-28T09:59:17.022Z,14.72
2023-03-28T10:02:00.332Z,12.72
2023-03-28T10:04:54.077Z,10.73
2023-03-28T10:07:42.815Z,8.47
2023-03-28T10:10:25.375Z,8.26
2023-03-28T10:13:03.528Z,9.55
2023-03-28T10:15:41.037Z,10.07
2023-03-28T10:18:40.772Z,9.88
2023-03-28T10:21:21.413Z,10.30
2023-03-28T10:24:04.598Z,10.83
2023-03-28T10:26:41.415Z,9.75
2023-03-28T10:29:18.524Z,9.32
2023-03-28T10:31:54.003Z,8.80
2023-03-28T10:34:35.543Z,9.13
2023-03-28T10:37:23.263Z,9.48
2023-03-28T10:40:01.605Z,9.81
2023-03-28T10:42:55.651Z,7.24
2023-03-28T10:45:38.671Z,5.64
2023-03-28T10:48:27.598Z,4.12
2023-03-28T10:51:12.593Z,4.03
2023-03-28T10:54:16.503Z,3.93
2023-03-28T10:57:04.914Z,3.41
2023-03-28T10:59:54.653Z,2.93
2023-03-28T11:02:50.417Z,2.77
2023-03-28T11:05:32.315Z,3.05
2023-03-28T11:08:39.980Z,2.65
2023-03-28T11:11:32.133Z,2.32
2023-03-28T11:14:03.573Z,1.94
2023-03-28T11:16:52.062Z,2.84
2023-03-28T11:20:06.661Z,3.69
2023-03-28T11:23:04.728Z,5.01
2023-03-28T11:25:52.234Z,6.35
2023-03-28T11:28:46.067Z,7.43
2023-03-28T11:31:26.029Z,6.74
2023-03-28T11:34:04.976Z,6.86
2023-03-28T11:37:00.320Z,6.26
2023-03-28T11:39:39.355Z,5.51
2023-03-28T11:42:28.997Z,5.35
2023-03-28T11:45:03.447Z,5.50
2023-03-28T11:47:34.650Z,6.08
2023-03-28T11:50:24.109Z,7.09
2023-03-28T11:53:11.373Z,7.94
2023-03-28T11:55:44.170Z,9.92
2023-03-28T11:58:19.470Z,11.00
2023-03-28T12:01:02.705Z,11.95
2023-03-28T12:03:49.111Z,13.77
2023-03-28T12:06:34.313Z,14.03
2023-03-28T12:09:17.014Z,14.45
2023-03-28T12:11:58.075Z,15.07
2023-03-28T12:14:42.536Z,14.92
2023-03-28T12:17:24.120Z,15.11
2023-03-28T12:19:56.767Z,15.03
2023-03-28T12:22:34.477Z,14.91
2023-03-28T12:25:12.194Z,14.54
2023-03-28T12:27:55.040Z,14.73
2023-03-28T12:30:26.507Z,15.84
2023-03-28T12:33:01.564Z,15.98
2023-03-28T12:35:35.660Z,16.12
2023-03-28T12:38:14.422Z,16.15
2023-03-28T12:40:52.454Z,16.61
2023-03-28T12:43:24.968Z,18.64
2023-03-28T12:45:57.565Z,20.09
2023-03-28T12:48:33.402Z,20.88
2023-03-28T12:51:06.539Z,22.32
2023-03-28T12:53:44.674Z,22.63
2023-03-28T12:56:15.206Z,23.08
2023-03-28T12:58:46.821Z,23.20
2023-03-28T13:01:19.557Z,22.68
2023-03-28T13:03:56.762Z,22.37
2023-03-28T13:06:30.144Z,22.20
2023-03-28T13:09:13.059Z,21.84
2023-03-28T13:11:45.926Z,21.43
2023-03-28T13:14:33.669Z,20.60
2023-03-28T13:17:03.708Z,21.38
2023-03-28T13:19:39.587Z,20.34
2023-03-28T13:22:26.459Z,19.64
2023-03-28T13:25:29.021Z,18.94
2023-03-28T13:27:58.084Z,19.63
2023-03-28T13:30:28.952Z,19.50
2023-03-28T13:32:58.858Z,18.45
2023-03-28T13:35:47.377Z,17.58
2023-03-28T13:38:33.579Z,17.44
2023-03-28T13:41:06.675Z,17.51
2023-03-28T13:43:42.799Z,17.35
2023-03-28T13:46:16.279Z,17.53
2023-03-28T13:48:49.670Z,17.32
2023-03-28T13:51:20.936Z,17.57
2023-03-28T13:53:49.812Z,18.12
2023-03-28T13:56:24.465Z,17.54
2023-03-28T13:58:55.706Z,17.59
2023-03-28T14:01:26.282Z,17.92
2023-03-28T14:03:56.008Z,17.90
2023-03-28T14:06:25.870Z,20.24
2023-03-28T14:08:56.697Z,22.26
2023-03-28T14:11:30.459Z,23.99
2023-03-28T14:14:06.068Z,24.91
2023-03-28T14:16:36.145Z,25.45
2023-03-28T14:19:05.187Z,24.98
2023-03-28T14:21:34.594Z,24.58
2023-03-28T14:24:04.275Z,25.04
2023-03-28T14:26:36.792Z,24.43
2023-03-28T14:29:08.445Z,24.90
2023-03-28T14:31:40.411Z,24.77
2023-03-28T14:34:18.266Z,23.74
2023-03-28T14:37:01.295Z,22.35
2023-03-28T14:39:31.468Z,22.25
2023-03-28T14:42:03.927Z,21.20
2023-03-28T14:44:36.582Z,20.65
2023-03-28T14:47:05.439Z,20.76
2023-03-28T14:49:34.330Z,20.97
2023-03-28T14:52:03.675Z,20.30
2023-03-28T14:54:34.675Z,20.24
2023-03-28T14:57:06.189Z,19.85
2023-03-28T14:59:37.725Z,19.93
2023-03-28T15:02:07.067Z,19.98
2023-03-28T15:04:35.999Z,20.07
2023-03-28T15:07:05.184Z,20.16
2023-03-28T15:09:34.624Z,19.97
2023-03-28T15:12:08.065Z,19.93
2023-03-28T15:14:39.936Z,20.17
2023-03-28T15:17:09.292Z,20.64
2023-03-28T15:19:38.851Z,20.90
2023-03-28T15:22:11.655Z,21.40
2023-03-28T15:24:40.625Z,21.91
2023-03-28T15:27:21.366Z,21.33
2023-03-28T15:29:49.744Z,21.52
2023-03-28T15:32:20.412Z,21.07
2023-03-28T15:34:55.273Z,20.95
2023-03-28T15:37:27.305Z,20.74
2023-03-28T15:39:55.772Z,21.43
2023-03-28T15:42:36.621Z,20.62
2023-03-28T15:45:22.498Z,20.54
2023-03-28T15:47:54.203Z,21.01
2023-03-28T15:50:25.885Z,20.07
2023-03-28T15:52:58.748Z,20.72
2023-03-28T15:55:27.886Z,20.92
2023-03-28T15:57:58.378Z,20.79
2023-03-28T16:00:47.431Z,21.14
2023-03-28T16:03:34.620Z,21.87
2023-03-28T16:06:23.046Z,22.38
2023-03-28T16:09:14.499Z,22.29
2023-03-28T16:11:42.878Z,23.07
2023-03-28T16:14:15.600Z,23.14
2023-03-28T16:16:44.076Z,23.18
2023-03-28T16:19:17.650Z,22.87
2023-03-28T16:21:46.192Z,23.25
2023-03-28T16:24:15.088Z,23.89
2023-03-28T16:26:43.424Z,24.10
2023-03-28T16:29:12.546Z,23.91
2023-03-28T16:31:43.972Z,23.24
2023-03-28T16:34:12.640Z,23.47
2023-03-28T16:36:41.154Z,23.05
2023-03-28T16:39:09.812Z,23.00
2023-03-28T16:41:38.350Z,22.72
2023-03-28T16:44:06.979Z,22.74
2023-03-28T16:46:35.656Z,22.47
2023-03-28T16:49:05.808Z,22.08
2023-03-28T16:51:34.111Z,22.12
2023-03-28T16:54:02.801Z,21.85
2023-03-28T16:56:31.521Z,22.25
2023-03-28T16:59:00.391Z,22.09
2023-03-28T17:01:28.707Z,22.15
2023-03-28T17:03:57.468Z,22.52
2023-03-28T17:06:27.783Z,21.85
2023-03-28T17:08:56.374Z,22.13
2023-03-28T17:11:24.700Z,21.96
2023-03-28T17:13:54.665Z,21.77
2023-03-28T17:16:23.178Z,21.62
2023-03-28T17:18:51.873Z,21.29
2023-03-28T17:21:20.753Z,21.24
2023-03-28T17:23:52.841Z,20.78
2023-03-28T17:26:21.734Z,20.86
2023-03-28T17:28:51.809Z,20.70
2023-03-28T17:31:21.892Z,20.24
2023-03-28T17:33:50.756Z,20.22
2023-03-28T17:36:22.052Z,20.03
2023-03-28T17:38:53.414Z,19.93
2023-03-28T17:41:23.288Z,19.96
2023-03-28T17:43:52.481Z,19.81
2023-03-28T17:46:21.476Z,19.82
2023-03-28T17:48:50.837Z,19.91
2023-03-28T17:51:19.292Z,19.72
2023-03-28T17:53:47.941Z,19.49
2023-03-28T17:56:17.919Z,19.62
2023-03-28T17:58:46.724Z,19.56
2023-03-28T18:01:17.029Z,19.27
2023-03-28T18:03:46.078Z,19.29
2023-03-28T18:06:14.592Z,18.75
2023-03-28T18:08:44.844Z,18.93
2023-03-28T18:11:15.544Z,18.68
2023-03-28T18:13:45.758Z,18.50
2023-03-28T18:16:15.729Z,18.46
2023-03-28T18:18:44.892Z,18.34
2023-03-28T18:21:13.121Z,18.12
2023-03-28T18:23:42.689Z,18.17
2023-03-28T18:26:12.199Z,17.97
2023-03-28T18:28:41.173Z,17.86
2023-03-28T18:31:12.855Z,17.54
2023-03-28T18:33:43.009Z,17.98
2023-03-28T18:36:12.412Z,18.05
2023-03-28T18:38:42.414Z,18.02
2023-03-28T18:41:12.755Z,17.74
2023-03-28T18:43:42.530Z,17.61
2023-03-28T18:46:16.006Z,17.48
2023-03-28T18:48:45.622Z,17.61
2023-03-28T18:51:14.118Z,17.70
2023-03-28T18:53:43.308Z,17.61
2023-03-28T18:56:13.692Z,17.65
2023-03-28T18:58:43.951Z,17.36
2023-03-28T19:01:13.884Z,17.25
2023-03-28T19:03:43.164Z,17.25
2023-03-28T19:06:13.548Z,17.28
2023-03-28T19:08:42.152Z,17.35
2023-03-28T19:11:13.474Z,17.25
2023-03-28T19:13:42.740Z,17.22
2023-03-28T19:16:13.767Z,17.26
2023-03-28T19:18:42.554Z,16.25
2023-03-28T19:21:11.900Z,17.07
2023-03-28T19:23:41.367Z,17.12
2023-03-28T19:26:11.236Z,17.13
2023-03-28T19:28:40.007Z,17.08
2023-03-28T19:31:10.133Z,17.00
2023-03-28T19:33:41.038Z,16.85
2023-03-28T19:36:09.799Z,16.87
2023-03-28T19:38:39.513Z,16.90
2023-03-28T19:41:16.992Z,16.85
2023-03-28T19:43:46.132Z,16.92
2023-03-28T19:46:17.003Z,16.66
2023-03-28T19:48:46.901Z,15.94
2023-03-28T19:51:15.624Z,16.78
2023-03-28T19:53:44.310Z,17.02
2023-03-28T19:56:14.106Z,17.26
2023-03-28T19:58:45.357Z,17.31
2023-03-28T20:01:13.811Z,17.26
2023-03-28T20:03:42.426Z,17.49
2023-03-28T20:06:14.698Z,17.37
2023-03-28T20:08:43.419Z,17.48
2023-03-28T20:11:12.765Z,17.46
2023-03-28T20:13:42.091Z,17.51
2023-03-28T20:16:12.104Z,17.64
2023-03-28T20:18:41.093Z,17.70
2023-03-28T20:21:12.240Z,17.56
2023-03-28T20:23:41.126Z,17.80
2023-03-28T20:26:14.661Z,17.54
2023-03-28T20:28:46.414Z,17.94
2023-03-28T20:31:15.894Z,17.93
2023-03-28T20:33:45.229Z,18.02
2023-03-28T20:36:14.815Z,17.96
2023-03-28T20:38:43.402Z,18.15
2023-03-28T20:41:12.564Z,18.04
2023-03-28T20:43:46.675Z,18.12
2023-03-28T20:46:18.453Z,18.02
2023-03-28T20:48:48.174Z,18.21
2023-03-28T20:51:18.866Z,18.18
2023-03-28T20:53:49.678Z,18.00
2023-03-28T20:56:19.046Z,18.07
2023-03-28T20:58:48.003Z,18.00
2023-03-28T21:01:17.719Z,17.99
2023-03-28T21:03:51.094Z,18.22
2023-03-28T21:06:22.520Z,17.74
2023-03-28T21:08:52.701Z,17.85
2023-03-28T21:11:23.797Z,17.90
2023-03-28T21:13:52.370Z,17.99
2023-03-28T21:16:21.278Z,18.00
2023-03-28T21:18:50.022Z,17.96
2023-03-28T21:21:20.983Z,17.90
2023-03-28T21:23:50.095Z,17.78
2023-03-28T21:26:19.759Z,17.75
2023-03-28T21:28:48.876Z,17.96
2023-03-28T21:31:19.960Z,17.80
2023-03-28T21:33:49.115Z,17.90
2023-03-28T21:36:19.146Z,18.07
2023-03-28T21:38:49.511Z,17.79
2023-03-28T21:41:17.923Z,18.12
2023-03-28T21:43:47.700Z,18.03
2023-03-28T21:46:18.640Z,18.08
2023-03-28T21:48:48.087Z,18.13
2023-03-28T21:51:17.914Z,18.27
2023-03-28T21:53:48.366Z,18.17
2023-03-28T21:56:16.876Z,18.43
2023-03-28T21:58:45.459Z,18.38
2023-03-28T22:01:15.054Z,18.31
2023-03-28T22:03:45.632Z,18.36
2023-03-28T22:06:14.089Z,18.32
2023-03-28T22:08:43.413Z,18.39
2023-03-28T22:11:14.870Z,18.55
2023-03-28T22:13:45.001Z,18.37
2023-03-28T22:16:14.329Z,18.44
2023-03-28T22:18:50.399Z,18.55
2023-03-28T22:21:18.741Z,18.47
2023-03-28T22:23:47.803Z,18.49
2023-03-28T22:26:18.016Z,18.59
2023-03-28T22:28:46.696Z,18.65
2023-03-28T22:31:17.100Z,18.78
2023-03-28T22:33:45.707Z,18.62
2023-03-28T22:36:14.001Z,18.70
2023-03-28T22:38:42.564Z,18.78
2023-03-28T22:41:11.158Z,19.05
2023-03-28T22:43:42.897Z,19.09
2023-03-28T22:46:12.683Z,19.30
2023-03-28T22:48:42.132Z,19.28
2023-03-28T22:51:12.063Z,19.33
2023-03-28T22:53:41.244Z,19.16
2023-03-28T22:56:12.591Z,19.16
2023-03-28T22:58:42.714Z,19.11
2023-03-28T23:01:10.964Z,19.27
2023-03-28T23:03:39.519Z,19.26
2023-03-28T23:06:08.415Z,19.22
2023-03-28T23:08:37.618Z,19.25
2023-03-28T23:11:06.921Z,19.50
2023-03-28T23:13:35.465Z,19.42
2023-03-28T23:16:05.820Z,19.32
2023-03-28T23:18:34.306Z,19.13
2023-03-28T23:21:02.749Z,19.26
2023-03-28T23:23:32.401Z,19.46
2023-03-28T23:26:00.882Z,19.38
2023-03-28T23:28:29.417Z,19.49
2023-03-28T23:30:57.706Z,19.54
2023-03-28T23:33:27.641Z,19.60
2023-03-28T23:35:56.357Z,19.73
2023-03-28T23:38:24.937Z,19.75
2023-03-28T23:40:53.105Z,19.60
2023-03-28T23:43:21.702Z,19.88
2023-03-28T23:45:50.036Z,20.08
2023-03-28T23:48:18.470Z,20.07
2023-03-28T23:50:48.151Z,20.09
2023-03-28T23:53:16.714Z,20.23
2023-03-28T23:55:45.120Z,20.52
2023-03-28T23:58:13.698Z,20.34
